< < Back
Terminal Aerodrome Forecast


Current Version              Previous Versions:   1  2  3  4  5  6  7  8  9  

Terminal Aerodrome Forecast

809
FTUS42 KILM 221700
TAFFLO
TAF
KFLO 221722Z 2218/2318 24012KT P6SM SCT060 SCT150
     FM222100 27010KT P6SM VCTS BKN060CB BKN120
     FM230300 32007KT P6SM FEW050
     FM231200 01010KT P6SM SKC=

Latest METAR

871
SAUS70 KWBC 230700 RRH
MTRFLO
METAR KFLO 230653Z AUTO 28006KT 7SM CLR 17/16 A2973 RMK AO2 SLP065
T01670156


USA.gov is the U.S. government's official web portal to all federal, state and local government web resources and services.